sensor_id;sensor_type;location;lat;lon;timestamp;temperature;humidity
5806;DHT22;2929;50.810;8.342;2022-07-23T00:00:14;18.50;99.90
5806;DHT22;2929;50.810;8.342;2022-07-23T00:02:42;18.60;99.90
5806;DHT22;2929;50.810;8.342;2022-07-23T00:05:09;18.60;99.90
5806;DHT22;2929;50.810;8.342;2022-07-23T00:07:37;18.60;99.90
5806;DHT22;2929;50.810;8.342;2022-07-23T00:10:04;18.50;99.90
5806;DHT22;2929;50.810;8.342;2022-07-23T00:12:31;18.30;99.90
5806;DHT22;2929;50.810;8.342;2022-07-23T00:14:59;18.20;99.90
5806;DHT22;2929;50.810;8.342;2022-07-23T00:17:26;18.20;99.90
5806;DHT22;2929;50.810;8.342;2022-07-23T00:19:54;18.20;99.90
5806;DHT22;2929;50.810;8.342;2022-07-23T00:22:21;18.30;99.90
5806;DHT22;2929;50.810;8.342;2022-07-23T00:24:48;18.30;99.90
5806;DHT22;2929;50.810;8.342;2022-07-23T00:27:15;18.40;99.90
5806;DHT22;2929;50.810;8.342;2022-07-23T00:29:42;18.50;99.90
5806;DHT22;2929;50.810;8.342;2022-07-23T00:32:09;18.50;99.90
5806;DHT22;2929;50.810;8.342;2022-07-23T00:34:36;18.50;99.90
5806;DHT22;2929;50.810;8.342;2022-07-23T00:37:05;18.50;99.90
5806;DHT22;2929;50.810;8.342;2022-07-23T00:39:32;18.50;99.90
5806;DHT22;2929;50.810;8.342;2022-07-23T00:41:59;18.40;99.90
5806;DHT22;2929;50.810;8.342;2022-07-23T00:44:27;18.30;99.90
5806;DHT22;2929;50.810;8.342;2022-07-23T00:46:56;18.30;99.90
5806;DHT22;2929;50.810;8.342;2022-07-23T00:49:24;18.30;99.90
5806;DHT22;2929;50.810;8.342;2022-07-23T00:51:52;18.20;99.90
5806;DHT22;2929;50.810;8.342;2022-07-23T00:54:22;18.20;99.90
5806;DHT22;2929;50.810;8.342;2022-07-23T00:56:49;18.20;99.90
5806;DHT22;2929;50.810;8.342;2022-07-23T00:59:16;18.20;99.90
5806;DHT22;2929;50.810;8.342;2022-07-23T01:01:44;18.20;99.90
5806;DHT22;2929;50.810;8.342;2022-07-23T01:04:13;18.10;99.90
5806;DHT22;2929;50.810;8.342;2022-07-23T01:06:40;18.10;99.90
5806;DHT22;2929;50.810;8.342;2022-07-23T01:09:09;18.10;99.90
5806;DHT22;2929;50.810;8.342;2022-07-23T01:11:38;18.10;99.90
5806;DHT22;2929;50.810;8.342;2022-07-23T01:14:11;18.20;99.90
5806;DHT22;2929;50.810;8.342;2022-07-23T01:16:38;18.10;99.90
5806;DHT22;2929;50.810;8.342;2022-07-23T01:19:06;18.00;99.90
5806;DHT22;2929;50.810;8.342;2022-07-23T01:21:37;17.80;99.90
5806;DHT22;2929;50.810;8.342;2022-07-23T01:24:06;17.70;99.90
5806;DHT22;2929;50.810;8.342;2022-07-23T01:26:37;17.60;99.90
5806;DHT22;2929;50.810;8.342;2022-07-23T01:29:04;17.50;99.90
5806;DHT22;2929;50.810;8.342;2022-07-23T01:31:32;17.50;99.90
5806;DHT22;2929;50.810;8.342;2022-07-23T01:33:59;17.50;99.90
5806;DHT22;2929;50.810;8.342;2022-07-23T01:36:27;17.50;99.90
5806;DHT22;2929;50.810;8.342;2022-07-23T01:38:54;17.40;99.90
5806;DHT22;2929;50.810;8.342;2022-07-23T01:41:22;17.50;99.90
5806;DHT22;2929;50.810;8.342;2022-07-23T01:43:50;17.60;99.90
5806;DHT22;2929;50.810;8.342;2022-07-23T01:46:17;17.80;99.90
5806;DHT22;2929;50.810;8.342;2022-07-23T01:48:47;17.80;99.90
5806;DHT22;2929;50.810;8.342;2022-07-23T01:51:53;17.90;99.90
5806;DHT22;2929;50.810;8.342;2022-07-23T01:54:34;17.80;99.90
5806;DHT22;2929;50.810;8.342;2022-07-23T01:57:05;17.70;99.90
5806;DHT22;2929;50.810;8.342;2022-07-23T01:59:32;17.60;99.90
5806;DHT22;2929;50.810;8.342;2022-07-23T02:02:00;17.70;99.90
5806;DHT22;2929;50.810;8.342;2022-07-23T02:04:28;17.70;99.90
5806;DHT22;2929;50.810;8.342;2022-07-23T02:06:55;17.70;99.90
5806;DHT22;2929;50.810;8.342;2022-07-23T02:09:22;17.70;99.90
5806;DHT22;2929;50.810;8.342;2022-07-23T02:11:49;17.70;99.90
5806;DHT22;2929;50.810;8.342;2022-07-23T02:14:19;17.60;99.90
5806;DHT22;2929;50.810;8.342;2022-07-23T02:16:46;17.60;99.90
5806;DHT22;2929;50.810;8.342;2022-07-23T02:19:14;17.50;99.90
5806;DHT22;2929;50.810;8.342;2022-07-23T02:21:41;17.50;99.90
5806;DHT22;2929;50.810;8.342;2022-07-23T02:24:08;17.40;99.90
5806;DHT22;2929;50.810;8.342;2022-07-23T02:26:36;17.40;99.90
5806;DHT22;2929;50.810;8.342;2022-07-23T02:29:05;17.30;99.90
5806;DHT22;2929;50.810;8.342;2022-07-23T02:31:34;17.30;99.90
5806;DHT22;2929;50.810;8.342;2022-07-23T02:34:02;17.30;99.90
5806;DHT22;2929;50.810;8.342;2022-07-23T02:36:29;17.30;99.90
5806;DHT22;2929;50.810;8.342;2022-07-23T02:38:57;17.30;99.90
5806;DHT22;2929;50.810;8.342;2022-07-23T02:41:25;17.40;99.90
5806;DHT22;2929;50.810;8.342;2022-07-23T02:43:52;17.30;99.90
5806;DHT22;2929;50.810;8.342;2022-07-23T02:46:20;17.30;99.90
5806;DHT22;2929;50.810;8.342;2022-07-23T02:48:49;17.40;99.90
5806;DHT22;2929;50.810;8.342;2022-07-23T02:51:16;17.50;99.90
5806;DHT22;2929;50.810;8.342;2022-07-23T02:53:50;17.50;99.90
5806;DHT22;2929;50.810;8.342;2022-07-23T02:56:17;17.60;99.90
5806;DHT22;2929;50.810;8.342;2022-07-23T02:58:44;17.50;99.90
5806;DHT22;2929;50.810;8.342;2022-07-23T03:01:12;17.40;99.90
5806;DHT22;2929;50.810;8.342;2022-07-23T03:03:39;17.40;99.90
5806;DHT22;2929;50.810;8.342;2022-07-23T03:06:08;17.40;99.90
5806;DHT22;2929;50.810;8.342;2022-07-23T03:08:37;17.40;99.90
5806;DHT22;2929;50.810;8.342;2022-07-23T03:11:04;17.30;99.90
5806;DHT22;2929;50.810;8.342;2022-07-23T03:13:37;17.40;99.90
5806;DHT22;2929;50.810;8.342;2022-07-23T03:16:05;17.30;99.90
5806;DHT22;2929;50.810;8.342;2022-07-23T03:18:32;17.30;99.90
5806;DHT22;2929;50.810;8.342;2022-07-23T03:20:59;17.30;99.90
5806;DHT22;2929;50.810;8.342;2022-07-23T03:23:28;17.40;99.90
5806;DHT22;2929;50.810;8.342;2022-07-23T03:25:55;17.40;99.90
5806;DHT22;2929;50.810;8.342;2022-07-23T03:28:23;17.40;99.90
5806;DHT22;2929;50.810;8.342;2022-07-23T03:30:50;17.40;99.90
5806;DHT22;2929;50.810;8.342;2022-07-23T03:33:18;17.40;99.90
5806;DHT22;2929;50.810;8.342;2022-07-23T03:35:46;17.30;99.90
5806;DHT22;2929;50.810;8.342;2022-07-23T03:38:19;17.30;99.90
5806;DHT22;2929;50.810;8.342;2022-07-23T03:40:47;17.30;99.90
5806;DHT22;2929;50.810;8.342;2022-07-23T03:43:14;17.30;99.90
5806;DHT22;2929;50.810;8.342;2022-07-23T03:45:41;17.30;99.90
5806;DHT22;2929;50.810;8.342;2022-07-23T03:48:08;17.20;99.90
5806;DHT22;2929;50.810;8.342;2022-07-23T03:50:35;17.20;99.90
5806;DHT22;2929;50.810;8.342;2022-07-23T03:53:03;17.20;99.90
5806;DHT22;2929;50.810;8.342;2022-07-23T03:55:32;17.20;99.90
5806;DHT22;2929;50.810;8.342;2022-07-23T03:58:01;17.10;99.90
5806;DHT22;2929;50.810;8.342;2022-07-23T04:00:28;17.00;99.90
5806;DHT22;2929;50.810;8.342;2022-07-23T04:02:55;17.00;99.90
5806;DHT22;2929;50.810;8.342;2022-07-23T04:05:22;17.00;99.90
5806;DHT22;2929;50.810;8.342;2022-07-23T04:07:55;17.00;99.90
5806;DHT22;2929;50.810;8.342;2022-07-23T04:10:22;17.00;99.90
5806;DHT22;2929;50.810;8.342;2022-07-23T04:12:49;17.00;99.90
5806;DHT22;2929;50.810;8.342;2022-07-23T04:15:18;17.10;99.90
5806;DHT22;2929;50.810;8.342;2022-07-23T04:17:46;17.10;99.90
5806;DHT22;2929;50.810;8.342;2022-07-23T04:20:16;17.00;99.90
5806;DHT22;2929;50.810;8.342;2022-07-23T04:22:51;16.90;99.90
5806;DHT22;2929;50.810;8.342;2022-07-23T04:25:18;16.80;99.90
5806;DHT22;2929;50.810;8.342;2022-07-23T04:27:45;16.80;99.90
5806;DHT22;2929;50.810;8.342;2022-07-23T04:30:12;16.80;99.90
5806;DHT22;2929;50.810;8.342;2022-07-23T04:32:41;16.70;99.90
5806;DHT22;2929;50.810;8.342;2022-07-23T04:35:17;16.50;99.90
5806;DHT22;2929;50.810;8.342;2022-07-23T04:37:44;16.40;99.90
5806;DHT22;2929;50.810;8.342;2022-07-23T04:40:12;16.50;99.90
5806;DHT22;2929;50.810;8.342;2022-07-23T04:42:40;16.40;99.90
5806;DHT22;2929;50.810;8.342;2022-07-23T04:45:08;16.50;99.90
5806;DHT22;2929;50.810;8.342;2022-07-23T04:47:35;16.60;99.90
5806;DHT22;2929;50.810;8.342;2022-07-23T04:50:04;16.70;99.90
5806;DHT22;2929;50.810;8.342;2022-07-23T04:52:31;16.60;99.90
5806;DHT22;2929;50.810;8.342;2022-07-23T04:54:58;16.60;99.90
5806;DHT22;2929;50.810;8.342;2022-07-23T04:57:25;16.70;99.90
5806;DHT22;2929;50.810;8.342;2022-07-23T04:59:53;16.80;99.90
5806;DHT22;2929;50.810;8.342;2022-07-23T05:02:20;16.90;99.90
5806;DHT22;2929;50.810;8.342;2022-07-23T05:04:47;17.00;99.90
5806;DHT22;2929;50.810;8.342;2022-07-23T05:07:16;17.10;99.90
5806;DHT22;2929;50.810;8.342;2022-07-23T05:09:43;17.10;99.90
5806;DHT22;2929;50.810;8.342;2022-07-23T05:12:10;17.10;99.90
5806;DHT22;2929;50.810;8.342;2022-07-23T05:14:37;17.10;99.90
5806;DHT22;2929;50.810;8.342;2022-07-23T05:17:04;17.20;99.90
5806;DHT22;2929;50.810;8.342;2022-07-23T05:19:33;17.30;99.90
5806;DHT22;2929;50.810;8.342;2022-07-23T05:22:01;17.30;99.90
5806;DHT22;2929;50.810;8.342;2022-07-23T05:24:29;17.30;99.90
5806;DHT22;2929;50.810;8.342;2022-07-23T05:26:57;17.30;99.90
5806;DHT22;2929;50.810;8.342;2022-07-23T05:29:24;17.30;99.90
5806;DHT22;2929;50.810;8.342;2022-07-23T05:31:51;17.20;99.90
5806;DHT22;2929;50.810;8.342;2022-07-23T05:34:19;17.10;99.90
5806;DHT22;2929;50.810;8.342;2022-07-23T05:36:47;17.10;99.90
5806;DHT22;2929;50.810;8.342;2022-07-23T05:39:14;17.20;99.90
5806;DHT22;2929;50.810;8.342;2022-07-23T05:41:44;17.20;99.90
5806;DHT22;2929;50.810;8.342;2022-07-23T05:44:11;17.30;99.90
5806;DHT22;2929;50.810;8.342;2022-07-23T05:46:40;17.30;99.90
5806;DHT22;2929;50.810;8.342;2022-07-23T05:49:10;17.40;99.90
5806;DHT22;2929;50.810;8.342;2022-07-23T05:52:07;17.40;99.90
5806;DHT22;2929;50.810;8.342;2022-07-23T05:54:57;17.30;99.90
5806;DHT22;2929;50.810;8.342;2022-07-23T05:57:26;17.40;99.90
5806;DHT22;2929;50.810;8.342;2022-07-23T05:59:53;17.30;99.90
5806;DHT22;2929;50.810;8.342;2022-07-23T06:02:20;17.40;99.90
5806;DHT22;2929;50.810;8.342;2022-07-23T06:04:47;17.40;99.90
5806;DHT22;2929;50.810;8.342;2022-07-23T06:07:25;17.50;99.90
5806;DHT22;2929;50.810;8.342;2022-07-23T06:09:52;17.60;99.90
5806;DHT22;2929;50.810;8.342;2022-07-23T06:12:19;17.70;99.90
5806;DHT22;2929;50.810;8.342;2022-07-23T06:14:47;17.90;99.90
5806;DHT22;2929;50.810;8.342;2022-07-23T06:17:15;17.90;99.90
5806;DHT22;2929;50.810;8.342;2022-07-23T06:19:43;17.90;99.90
5806;DHT22;2929;50.810;8.342;2022-07-23T06:22:10;18.00;99.90
5806;DHT22;2929;50.810;8.342;2022-07-23T06:24:37;18.10;99.90
5806;DHT22;2929;50.810;8.342;2022-07-23T06:27:05;18.20;99.90
5806;DHT22;2929;50.810;8.342;2022-07-23T06:29:32;18.30;99.90
5806;DHT22;2929;50.810;8.342;2022-07-23T06:32:00;18.40;99.90
5806;DHT22;2929;50.810;8.342;2022-07-23T06:34:27;18.40;99.90
5806;DHT22;2929;50.810;8.342;2022-07-23T06:36:56;18.40;99.90
5806;DHT22;2929;50.810;8.342;2022-07-23T06:39:26;18.40;99.90
5806;DHT22;2929;50.810;8.342;2022-07-23T06:41:53;18.40;99.90
5806;DHT22;2929;50.810;8.342;2022-07-23T06:44:25;18.50;99.90
5806;DHT22;2929;50.810;8.342;2022-07-23T06:46:53;18.50;99.90
5806;DHT22;2929;50.810;8.342;2022-07-23T06:49:21;18.60;99.90
5806;DHT22;2929;50.810;8.342;2022-07-23T06:51:49;18.60;99.90
5806;DHT22;2929;50.810;8.342;2022-07-23T06:54:16;18.60;99.90
5806;DHT22;2929;50.810;8.342;2022-07-23T06:56:43;18.70;99.90
5806;DHT22;2929;50.810;8.342;2022-07-23T06:59:10;18.80;99.90
5806;DHT22;2929;50.810;8.342;2022-07-23T07:01:37;18.80;99.90
5806;DHT22;2929;50.810;8.342;2022-07-23T07:04:04;18.80;99.90
5806;DHT22;2929;50.810;8.342;2022-07-23T07:06:33;18.80;99.90
5806;DHT22;2929;50.810;8.342;2022-07-23T07:09:00;18.90;99.90
5806;DHT22;2929;50.810;8.342;2022-07-23T07:11:27;19.00;99.90
5806;DHT22;2929;50.810;8.342;2022-07-23T07:13:54;19.00;99.90
5806;DHT22;2929;50.810;8.342;2022-07-23T07:16:21;19.20;99.90
5806;DHT22;2929;50.810;8.342;2022-07-23T07:18:48;19.10;99.90
5806;DHT22;2929;50.810;8.342;2022-07-23T07:21:15;19.20;99.90
5806;DHT22;2929;50.810;8.342;2022-07-23T07:23:43;19.20;99.90
5806;DHT22;2929;50.810;8.342;2022-07-23T07:26:10;19.20;99.90
5806;DHT22;2929;50.810;8.342;2022-07-23T07:28:37;19.20;99.90
5806;DHT22;2929;50.810;8.342;2022-07-23T07:31:04;19.20;99.90
5806;DHT22;2929;50.810;8.342;2022-07-23T07:33:32;19.30;99.90
5806;DHT22;2929;50.810;8.342;2022-07-23T07:35:59;19.30;99.90
5806;DHT22;2929;50.810;8.342;2022-07-23T07:38:26;19.40;99.90
5806;DHT22;2929;50.810;8.342;2022-07-23T07:40:54;19.30;99.90
5806;DHT22;2929;50.810;8.342;2022-07-23T07:43:21;19.40;99.90
5806;DHT22;2929;50.810;8.342;2022-07-23T07:45:48;19.40;99.90
5806;DHT22;2929;50.810;8.342;2022-07-23T07:48:15;19.50;99.90
5806;DHT22;2929;50.810;8.342;2022-07-23T07:50:42;19.50;99.90
5806;DHT22;2929;50.810;8.342;2022-07-23T07:53:09;19.60;99.90
5806;DHT22;2929;50.810;8.342;2022-07-23T07:55:36;19.60;99.90
5806;DHT22;2929;50.810;8.342;2022-07-23T07:58:04;19.60;99.90
5806;DHT22;2929;50.810;8.342;2022-07-23T08:00:32;19.70;99.90
5806;DHT22;2929;50.810;8.342;2022-07-23T08:02:59;19.70;99.90
5806;DHT22;2929;50.810;8.342;2022-07-23T08:05:29;19.80;99.90
5806;DHT22;2929;50.810;8.342;2022-07-23T08:07:57;19.80;99.90
5806;DHT22;2929;50.810;8.342;2022-07-23T08:10:26;19.90;99.90
5806;DHT22;2929;50.810;8.342;2022-07-23T08:12:54;20.00;99.90
5806;DHT22;2929;50.810;8.342;2022-07-23T08:15:25;20.00;99.90
5806;DHT22;2929;50.810;8.342;2022-07-23T08:17:53;19.90;99.90
5806;DHT22;2929;50.810;8.342;2022-07-23T08:20:22;20.10;99.90
5806;DHT22;2929;50.810;8.342;2022-07-23T08:22:52;20.20;99.90
5806;DHT22;2929;50.810;8.342;2022-07-23T08:25:21;20.40;99.90
5806;DHT22;2929;50.810;8.342;2022-07-23T08:27:49;20.60;99.90
5806;DHT22;2929;50.810;8.342;2022-07-23T08:30:17;20.60;99.90
5806;DHT22;2929;50.810;8.342;2022-07-23T08:32:50;20.50;99.90
5806;DHT22;2929;50.810;8.342;2022-07-23T08:35:18;20.50;99.90
5806;DHT22;2929;50.810;8.342;2022-07-23T08:37:45;20.50;99.90
5806;DHT22;2929;50.810;8.342;2022-07-23T08:40:12;20.40;99.90
5806;DHT22;2929;50.810;8.342;2022-07-23T08:42:39;20.50;99.90
5806;DHT22;2929;50.810;8.342;2022-07-23T08:45:07;20.70;99.90
5806;DHT22;2929;50.810;8.342;2022-07-23T08:47:36;20.90;99.90
5806;DHT22;2929;50.810;8.342;2022-07-23T08:50:07;20.90;99.90
5806;DHT22;2929;50.810;8.342;2022-07-23T08:52:36;21.00;99.90
5806;DHT22;2929;50.810;8.342;2022-07-23T08:55:04;21.00;99.90
5806;DHT22;2929;50.810;8.342;2022-07-23T08:57:32;21.10;99.90
5806;DHT22;2929;50.810;8.342;2022-07-23T08:59:59;21.30;99.90
5806;DHT22;2929;50.810;8.342;2022-07-23T09:02:26;21.30;99.90
5806;DHT22;2929;50.810;8.342;2022-07-23T09:04:53;21.20;99.90
5806;DHT22;2929;50.810;8.342;2022-07-23T09:07:21;21.30;99.90
5806;DHT22;2929;50.810;8.342;2022-07-23T09:10:05;21.40;99.90
5806;DHT22;2929;50.810;8.342;2022-07-23T09:12:33;21.30;99.90
5806;DHT22;2929;50.810;8.342;2022-07-23T09:15:04;21.40;99.90
5806;DHT22;2929;50.810;8.342;2022-07-23T09:17:38;21.50;99.90
5806;DHT22;2929;50.810;8.342;2022-07-23T09:20:10;21.40;99.90
5806;DHT22;2929;50.810;8.342;2022-07-23T09:22:40;21.30;99.90
5806;DHT22;2929;50.810;8.342;2022-07-23T09:25:12;21.30;99.90
5806;DHT22;2929;50.810;8.342;2022-07-23T09:27:49;21.50;99.90
5806;DHT22;2929;50.810;8.342;2022-07-23T09:30:18;21.50;99.90
5806;DHT22;2929;50.810;8.342;2022-07-23T09:33:04;21.70;99.90
5806;DHT22;2929;50.810;8.342;2022-07-23T09:35:48;22.00;99.90
5806;DHT22;2929;50.810;8.342;2022-07-23T09:38:17;22.00;99.90
5806;DHT22;2929;50.810;8.342;2022-07-23T09:40:46;21.80;99.90
5806;DHT22;2929;50.810;8.342;2022-07-23T09:43:26;22.00;99.90
5806;DHT22;2929;50.810;8.342;2022-07-23T09:45:54;22.20;99.90
5806;DHT22;2929;50.810;8.342;2022-07-23T09:48:41;22.00;99.90
5806;DHT22;2929;50.810;8.342;2022-07-23T09:51:07;21.80;99.90
5806;DHT22;2929;50.810;8.342;2022-07-23T09:53:36;21.90;99.90
5806;DHT22;2929;50.810;8.342;2022-07-23T09:56:04;22.10;99.90
5806;DHT22;2929;50.810;8.342;2022-07-23T09:58:31;22.00;99.90
5806;DHT22;2929;50.810;8.342;2022-07-23T10:00:59;22.00;99.90
5806;DHT22;2929;50.810;8.342;2022-07-23T10:03:26;22.10;99.90
5806;DHT22;2929;50.810;8.342;2022-07-23T10:06:23;22.00;99.90
5806;DHT22;2929;50.810;8.342;2022-07-23T10:09:16;21.80;99.90
5806;DHT22;2929;50.810;8.342;2022-07-23T10:12:06;21.60;99.90
5806;DHT22;2929;50.810;8.342;2022-07-23T10:14:59;21.80;99.90
5806;DHT22;2929;50.810;8.342;2022-07-23T10:17:27;22.20;99.90
5806;DHT22;2929;50.810;8.342;2022-07-23T10:19:55;22.50;99.90
5806;DHT22;2929;50.810;8.342;2022-07-23T10:22:24;22.50;99.90
5806;DHT22;2929;50.810;8.342;2022-07-23T10:25:10;22.60;99.60
5806;DHT22;2929;50.810;8.342;2022-07-23T10:28:12;22.80;98.70
5806;DHT22;2929;50.810;8.342;2022-07-23T10:30:51;23.10;98.60
5806;DHT22;2929;50.810;8.342;2022-07-23T10:33:30;23.30;99.10
5806;DHT22;2929;50.810;8.342;2022-07-23T10:36:07;23.50;98.50
5806;DHT22;2929;50.810;8.342;2022-07-23T10:38:40;23.60;97.80
5806;DHT22;2929;50.810;8.342;2022-07-23T10:41:11;23.60;96.80
5806;DHT22;2929;50.810;8.342;2022-07-23T10:43:38;23.60;95.80
5806;DHT22;2929;50.810;8.342;2022-07-23T10:46:21;23.90;96.00
5806;DHT22;2929;50.810;8.342;2022-07-23T10:49:26;23.90;95.10
5806;DHT22;2929;50.810;8.342;2022-07-23T10:52:18;23.80;94.20
5806;DHT22;2929;50.810;8.342;2022-07-23T10:54:47;24.30;95.30
5806;DHT22;2929;50.810;8.342;2022-07-23T10:57:16;24.30;95.00
5806;DHT22;2929;50.810;8.342;2022-07-23T11:00:20;24.70;95.30
5806;DHT22;2929;50.810;8.342;2022-07-23T11:02:48;24.90;93.20
5806;DHT22;2929;50.810;8.342;2022-07-23T11:05:18;25.10;95.90
5806;DHT22;2929;50.810;8.342;2022-07-23T11:08:17;25.00;92.40
5806;DHT22;2929;50.810;8.342;2022-07-23T11:10:49;24.70;92.90
5806;DHT22;2929;50.810;8.342;2022-07-23T11:13:30;24.60;93.70
5806;DHT22;2929;50.810;8.342;2022-07-23T11:16:12;24.70;94.00
5806;DHT22;2929;50.810;8.342;2022-07-23T11:19:05;24.90;92.40
5806;DHT22;2929;50.810;8.342;2022-07-23T11:21:48;25.00;91.80
5806;DHT22;2929;50.810;8.342;2022-07-23T11:24:18;25.40;93.00
5806;DHT22;2929;50.810;8.342;2022-07-23T11:26:59;25.40;90.40
5806;DHT22;2929;50.810;8.342;2022-07-23T11:29:44;25.50;89.20
5806;DHT22;2929;50.810;8.342;2022-07-23T11:32:32;25.50;91.20
5806;DHT22;2929;50.810;8.342;2022-07-23T11:35:01;25.90;91.10
5806;DHT22;2929;50.810;8.342;2022-07-23T11:37:35;26.20;90.20
5806;DHT22;2929;50.810;8.342;2022-07-23T11:40:05;26.40;87.10
5806;DHT22;2929;50.810;8.342;2022-07-23T11:42:35;26.70;88.80
5806;DHT22;2929;50.810;8.342;2022-07-23T11:45:03;26.70;87.30
5806;DHT22;2929;50.810;8.342;2022-07-23T11:47:31;27.00;89.90
5806;DHT22;2929;50.810;8.342;2022-07-23T11:49:59;27.00;87.90
5806;DHT22;2929;50.810;8.342;2022-07-23T11:52:27;27.10;87.30
5806;DHT22;2929;50.810;8.342;2022-07-23T11:54:57;27.30;88.90
5806;DHT22;2929;50.810;8.342;2022-07-23T11:57:27;27.40;86.40
5806;DHT22;2929;50.810;8.342;2022-07-23T11:59:57;27.40;85.60
5806;DHT22;2929;50.810;8.342;2022-07-23T12:02:24;28.00;85.80
5806;DHT22;2929;50.810;8.342;2022-07-23T12:04:52;27.90;83.40
5806;DHT22;2929;50.810;8.342;2022-07-23T12:07:27;28.30;82.80
5806;DHT22;2929;50.810;8.342;2022-07-23T12:09:56;27.80;81.00
5806;DHT22;2929;50.810;8.342;2022-07-23T12:12:24;28.20;81.80
5806;DHT22;2929;50.810;8.342;2022-07-23T12:14:52;28.40;80.60
5806;DHT22;2929;50.810;8.342;2022-07-23T12:17:20;28.60;80.90
5806;DHT22;2929;50.810;8.342;2022-07-23T12:19:47;28.80;79.80
5806;DHT22;2929;50.810;8.342;2022-07-23T12:22:15;28.40;81.40
5806;DHT22;2929;50.810;8.342;2022-07-23T12:25:05;28.20;78.90
5806;DHT22;2929;50.810;8.342;2022-07-23T12:27:33;29.10;80.20
5806;DHT22;2929;50.810;8.342;2022-07-23T12:30:19;29.60;78.20
5806;DHT22;2929;50.810;8.342;2022-07-23T12:32:47;29.80;76.60
5806;DHT22;2929;50.810;8.342;2022-07-23T12:35:15;29.40;74.40
5806;DHT22;2929;50.810;8.342;2022-07-23T12:37:44;29.10;75.10
5806;DHT22;2929;50.810;8.342;2022-07-23T12:40:27;29.40;75.80
5806;DHT22;2929;50.810;8.342;2022-07-23T12:42:56;29.60;76.50
5806;DHT22;2929;50.810;8.342;2022-07-23T12:45:24;29.40;74.90
5806;DHT22;2929;50.810;8.342;2022-07-23T12:47:57;29.40;75.30
5806;DHT22;2929;50.810;8.342;2022-07-23T12:50:37;29.10;73.40
5806;DHT22;2929;50.810;8.342;2022-07-23T12:53:06;29.30;75.30
5806;DHT22;2929;50.810;8.342;2022-07-23T12:55:35;29.80;75.00
5806;DHT22;2929;50.810;8.342;2022-07-23T12:58:10;30.10;74.70
5806;DHT22;2929;50.810;8.342;2022-07-23T13:00:59;30.60;72.90
5806;DHT22;2929;50.810;8.342;2022-07-23T13:03:32;29.20;75.00
5806;DHT22;2929;50.810;8.342;2022-07-23T13:06:00;29.30;75.60
5806;DHT22;2929;50.810;8.342;2022-07-23T13:08:29;30.00;74.70
5806;DHT22;2929;50.810;8.342;2022-07-23T13:10:58;29.60;74.80
5806;DHT22;2929;50.810;8.342;2022-07-23T13:13:28;29.60;76.40
5806;DHT22;2929;50.810;8.342;2022-07-23T13:15:56;29.80;76.20
5806;DHT22;2929;50.810;8.342;2022-07-23T13:18:24;30.60;75.40
5806;DHT22;2929;50.810;8.342;2022-07-23T13:20:51;30.50;77.00
5806;DHT22;2929;50.810;8.342;2022-07-23T13:23:18;31.00;75.00
5806;DHT22;2929;50.810;8.342;2022-07-23T13:25:46;30.90;74.50
5806;DHT22;2929;50.810;8.342;2022-07-23T13:28:18;30.70;75.30
5806;DHT22;2929;50.810;8.342;2022-07-23T13:30:47;30.70;75.30
5806;DHT22;2929;50.810;8.342;2022-07-23T13:35:27;30.70;72.10
5806;DHT22;2929;50.810;8.342;2022-07-23T13:36:48;29.90;75.30
5806;DHT22;2929;50.810;8.342;2022-07-23T13:39:25;30.30;76.50
5806;DHT22;2929;50.810;8.342;2022-07-23T13:41:52;30.60;74.40
5806;DHT22;2929;50.810;8.342;2022-07-23T13:44:20;30.60;73.80
5806;DHT22;2929;50.810;8.342;2022-07-23T13:46:47;30.60;75.90
5806;DHT22;2929;50.810;8.342;2022-07-23T13:49:14;30.70;75.40
5806;DHT22;2929;50.810;8.342;2022-07-23T13:51:41;31.00;72.20
5806;DHT22;2929;50.810;8.342;2022-07-23T13:54:08;30.70;72.50
5806;DHT22;2929;50.810;8.342;2022-07-23T13:56:35;31.30;73.50
5806;DHT22;2929;50.810;8.342;2022-07-23T13:59:03;31.60;71.60
5806;DHT22;2929;50.810;8.342;2022-07-23T14:01:31;31.90;70.00
5806;DHT22;2929;50.810;8.342;2022-07-23T14:03:58;31.60;69.20
5806;DHT22;2929;50.810;8.342;2022-07-23T14:06:25;31.40;68.50
5806;DHT22;2929;50.810;8.342;2022-07-23T14:08:53;30.40;68.10
5806;DHT22;2929;50.810;8.342;2022-07-23T14:11:20;30.40;70.30
5806;DHT22;2929;50.810;8.342;2022-07-23T14:13:47;30.30;72.30
5806;DHT22;2929;50.810;8.342;2022-07-23T14:16:14;30.60;70.40
5806;DHT22;2929;50.810;8.342;2022-07-23T14:18:42;31.10;67.90
5806;DHT22;2929;50.810;8.342;2022-07-23T14:21:09;30.90;70.30
5806;DHT22;2929;50.810;8.342;2022-07-23T14:23:37;31.40;71.60
5806;DHT22;2929;50.810;8.342;2022-07-23T14:26:04;31.60;68.80
5806;DHT22;2929;50.810;8.342;2022-07-23T14:28:32;31.70;67.60
5806;DHT22;2929;50.810;8.342;2022-07-23T14:30:59;31.60;69.20
5806;DHT22;2929;50.810;8.342;2022-07-23T14:33:26;31.90;69.90
5806;DHT22;2929;50.810;8.342;2022-07-23T14:35:55;32.10;67.40
5806;DHT22;2929;50.810;8.342;2022-07-23T14:38:22;31.50;66.50
5806;DHT22;2929;50.810;8.342;2022-07-23T14:40:49;31.90;66.10
5806;DHT22;2929;50.810;8.342;2022-07-23T14:43:16;31.80;67.10
5806;DHT22;2929;50.810;8.342;2022-07-23T14:45:43;31.50;66.80
5806;DHT22;2929;50.810;8.342;2022-07-23T14:48:10;32.20;66.80
5806;DHT22;2929;50.810;8.342;2022-07-23T14:50:37;31.80;66.50
5806;DHT22;2929;50.810;8.342;2022-07-23T14:53:05;32.10;68.70
5806;DHT22;2929;50.810;8.342;2022-07-23T14:55:33;32.60;65.20
5806;DHT22;2929;50.810;8.342;2022-07-23T14:58:00;32.20;62.70
5806;DHT22;2929;50.810;8.342;2022-07-23T15:00:27;32.20;65.80
5806;DHT22;2929;50.810;8.342;2022-07-23T15:02:54;32.40;63.80
5806;DHT22;2929;50.810;8.342;2022-07-23T15:05:22;31.60;65.40
5806;DHT22;2929;50.810;8.342;2022-07-23T15:07:49;31.40;65.90
5806;DHT22;2929;50.810;8.342;2022-07-23T15:10:17;31.30;67.50
5806;DHT22;2929;50.810;8.342;2022-07-23T15:12:44;31.50;66.40
5806;DHT22;2929;50.810;8.342;2022-07-23T15:15:11;31.30;65.10
5806;DHT22;2929;50.810;8.342;2022-07-23T15:17:39;30.30;68.60
5806;DHT22;2929;50.810;8.342;2022-07-23T15:20:07;29.70;70.20
5806;DHT22;2929;50.810;8.342;2022-07-23T15:22:34;29.70;68.30
5806;DHT22;2929;50.810;8.342;2022-07-23T15:25:01;29.90;66.50
5806;DHT22;2929;50.810;8.342;2022-07-23T15:27:30;30.70;67.20
5806;DHT22;2929;50.810;8.342;2022-07-23T15:29:57;31.20;66.60
5806;DHT22;2929;50.810;8.342;2022-07-23T15:32:24;31.00;65.90
5806;DHT22;2929;50.810;8.342;2022-07-23T15:34:52;31.30;67.60
5806;DHT22;2929;50.810;8.342;2022-07-23T15:37:19;31.40;67.80
5806;DHT22;2929;50.810;8.342;2022-07-23T15:39:48;31.40;64.50
5806;DHT22;2929;50.810;8.342;2022-07-23T15:42:16;31.10;65.60
5806;DHT22;2929;50.810;8.342;2022-07-23T15:44:44;31.40;66.80
5806;DHT22;2929;50.810;8.342;2022-07-23T15:47:13;31.00;64.70
5806;DHT22;2929;50.810;8.342;2022-07-23T15:49:40;30.70;67.20
5806;DHT22;2929;50.810;8.342;2022-07-23T15:52:07;30.60;66.10
5806;DHT22;2929;50.810;8.342;2022-07-23T15:54:36;30.40;64.30
5806;DHT22;2929;50.810;8.342;2022-07-23T15:57:03;30.30;67.50
5806;DHT22;2929;50.810;8.342;2022-07-23T15:59:31;30.60;67.10
5806;DHT22;2929;50.810;8.342;2022-07-23T16:01:59;30.40;66.80
5806;DHT22;2929;50.810;8.342;2022-07-23T16:04:26;29.90;67.60
5806;DHT22;2929;50.810;8.342;2022-07-23T16:06:54;29.40;67.60
5806;DHT22;2929;50.810;8.342;2022-07-23T16:09:21;29.90;70.20
5806;DHT22;2929;50.810;8.342;2022-07-23T16:11:48;30.50;68.80
5806;DHT22;2929;50.810;8.342;2022-07-23T16:14:15;30.40;69.60
5806;DHT22;2929;50.810;8.342;2022-07-23T16:16:42;30.70;67.20
5806;DHT22;2929;50.810;8.342;2022-07-23T16:19:11;30.90;64.60